Cranwell, United Kingdom
Current Conditions -  °F | °C
As of 12:37 PM on Wednesday 26 Nov 2014 (Local Time) from EGYD Reporting Station
Haze Haze  
Wind Chill: 43°   Ceiling: 900
Heat Index: 46°   Visibility: 2.1mi
Dew Point: 45°   Wind: 7mph
Humidity: 93%   Direction: 60°ENE
Pressure: 29.85"   Gusts: NA
Location:  53.03°N, 0.5°W
Report Text: EGYD 261237Z 06006KT 3500 BR FEW005 SCT006 OVC009 08/07 Q1011 YLO1 BECMG BKN004 YLO2
Loading
Personal Weather Stations






























Interactive Weather Map New forecast layout! Learn more

10-Day Weather Forecast

Advertisements
Track Severe Weather on mobile